Ever Delight — 3FCB8 — position and weather

sailwx.info

Track history (hours):
 
Tides and Currents Weather Stations Pressure Air Temp Water Temp Dewpoint Dewpoint Depression Visibility Wind Speed Wind Dir Waves Ship Positions

Ever Delight

Last reported at 2017-Mar-12 20:31 UTC. Time now 2017-Mar-30 14:49 UTC.
Position N 01°52' E 102°26'.
Warning: this ship's position is 17 days out of date.

Type: Ship (hazmat cat D). MMSI: 351936000.

Date/timePositionNaut miles runAvg speedWind from/ knotsBaromVisibWave heightAir tempDewpointWater temp
2017-Mar-12 20:31N 01°52' E 102°26'1415.2
2017-Mar-12 19:33N 01°46' E 102°39'1715.0
2017-Mar-12 18:27N 01°40' E 102°54'1514.2
2017-Mar-12 17:23N 01°32' E 103°07'2412.6
2017-Mar-12 15:32N 01°15' E 103°24'1212.4
2017-Mar-12 14:33N 01°12' E 103°35'1010.1
2017-Mar-12 13:33N 01°16' E 103°44'3 2.5
2017-Mar-12 12:33N 01°16' E 103°47'0 0.0
2017-Mar-12 11:34N 01°16' E 103°47'0 0.0
2017-Mar-12 10:34N 01°16' E 103°47'0 0.0
2017-Mar-12 09:34N 01°16' E 103°47'0 0.0
2017-Mar-12 08:34N 01°16' E 103°47'0 0.0
2017-Mar-12 07:33N 01°16' E 103°47'0 0.0
2017-Mar-12 06:33N 01°16' E 103°47'0 0.0
2017-Mar-12 05:33N 01°16' E 103°47'0 0.0
2017-Mar-12 04:33N 01°16' E 103°47'0 0.0
2017-Mar-12 03:33N 01°16' E 103°47'0 0.0
2017-Mar-12 02:33N 01°16' E 103°47'0 0.1
2017-Mar-12 01:34N 01°16' E 103°47'0 0.1
2017-Mar-12 00:34N 01°16' E 103°47'0 0.3
2017-Mar-11 23:33N 01°16' E 103°47'8 7.8
2017-Mar-11 22:34N 01°12' E 103°40'7 6.9
2017-Mar-11 21:33N 01°13' E 103°33'4 3.0
2017-Mar-11 20:05N 01°15' E 103°29'0 0.1
2017-Mar-11 19:32N 01°15' E 103°29'0 0.1
2017-Mar-11 18:33N 01°15' E 103°29'0 0.0
2017-Mar-11 12:14N 01°15' E 103°29'0 0.1
2017-Mar-11 11:29N 01°15' E 103°29'0 0.0
2017-Mar-11 10:31N 01°15' E 103°29'0 0.0
2017-Mar-11 09:33N 01°15' E 103°29'0 0.0
2017-Mar-11 08:11N 01°15' E 103°29'0 0.0
2017-Mar-11 07:26N 01°15' E 103°29'0 0.1
2017-Mar-11 06:29N 01°15' E 103°29'4 4.4
2017-Mar-11 05:33N 01°17' E 103°33'5 2.5
2017-Mar-11 03:33N 01°22' E 103°33'0 0.0
2017-Mar-11 02:33N 01°22' E 103°33'0 0.0
2017-Mar-11 01:33N 01°22' E 103°33'0 0.0
2017-Mar-11 00:33N 01°22' E 103°33'0 0.0
2017-Mar-10 23:33N 01°22' E 103°33'0 0.0
2017-Mar-10 22:33N 01°22' E 103°33'0 0.0
2017-Mar-10 21:32N 01°22' E 103°33'0 0.1
2017-Mar-10 20:32N 01°22' E 103°33'0 0.1
2017-Mar-10 19:33N 01°22' E 103°33'0 0.0
2017-Mar-10 18:33N 01°22' E 103°33'0 0.0
2017-Mar-10 17:33N 01°22' E 103°33'0 0.1
2017-Mar-10 16:33N 01°22' E 103°33'0 0.1
2017-Mar-10 15:34N 01°22' E 103°33'0 0.0
2017-Mar-10 14:33N 01°22' E 103°33'0 0.0
2017-Mar-10 13:29N 01°22' E 103°33'1 1.3
2017-Mar-10 12:33N 01°20' E 103°33'9 8.9
2017-Mar-10 11:33N 01°12' E 103°30'1 0.9
2017-Mar-10 10:33N 01°12' E 103°29'6 5.5
2017-Mar-10 09:32N 01°13' E 103°23'5512.7
2017-Mar-10 05:10N 01°42' E 102°36'912.6
2017-Mar-10 04:27N 01°46' E 102°28'1112.6
2017-Mar-10 03:33N 01°51' E 102°18'  
Track history (hours):
 
Tides and Currents Weather Stations Pressure Air Temp Water Temp Dewpoint Dewpoint Depression Visibility Wind Speed Wind Dir Waves Ship Positions

Ever Delight

Last reported at 2017-Mar-12 20:31 UTC. Time now 2017-Mar-30 14:49 UTC.
Position N 01°52' E 102°26'.
Warning: this ship's position is 17 days out of date.

Type: Ship (hazmat cat D). MMSI: 351936000.

Date/timePositionNaut miles runAvg speedWind from/ knotsBaromVisibWave heightAir tempDewpointWater temp
2017-Mar-12 20:31N 01°52' E 102°26'1415.2
2017-Mar-12 19:33N 01°46' E 102°39'1715.0
2017-Mar-12 18:27N 01°40' E 102°54'1514.2
2017-Mar-12 17:23N 01°32' E 103°07'2412.6
2017-Mar-12 15:32N 01°15' E 103°24'1212.4
2017-Mar-12 14:33N 01°12' E 103°35'1010.1
2017-Mar-12 13:33N 01°16' E 103°44'3 2.5
2017-Mar-12 12:33N 01°16' E 103°47'0 0.0
2017-Mar-12 11:34N 01°16' E 103°47'0 0.0
2017-Mar-12 10:34N 01°16' E 103°47'0 0.0
2017-Mar-12 09:34N 01°16' E 103°47'0 0.0
2017-Mar-12 08:34N 01°16' E 103°47'0 0.0
2017-Mar-12 07:33N 01°16' E 103°47'0 0.0
2017-Mar-12 06:33N 01°16' E 103°47'0 0.0
2017-Mar-12 05:33N 01°16' E 103°47'0 0.0
2017-Mar-12 04:33N 01°16' E 103°47'0 0.0
2017-Mar-12 03:33N 01°16' E 103°47'0 0.0
2017-Mar-12 02:33N 01°16' E 103°47'0 0.1
2017-Mar-12 01:34N 01°16' E 103°47'0 0.1
2017-Mar-12 00:34N 01°16' E 103°47'0 0.3
2017-Mar-11 23:33N 01°16' E 103°47'8 7.8
2017-Mar-11 22:34N 01°12' E 103°40'7 6.9
2017-Mar-11 21:33N 01°13' E 103°33'4 3.0
2017-Mar-11 20:05N 01°15' E 103°29'0 0.1
2017-Mar-11 19:32N 01°15' E 103°29'0 0.1
2017-Mar-11 18:33N 01°15' E 103°29'0 0.0
2017-Mar-11 12:14N 01°15' E 103°29'0 0.1
2017-Mar-11 11:29N 01°15' E 103°29'0 0.0
2017-Mar-11 10:31N 01°15' E 103°29'0 0.0
2017-Mar-11 09:33N 01°15' E 103°29'0 0.0
2017-Mar-11 08:11N 01°15' E 103°29'0 0.0
2017-Mar-11 07:26N 01°15' E 103°29'0 0.1
2017-Mar-11 06:29N 01°15' E 103°29'4 4.4
2017-Mar-11 05:33N 01°17' E 103°33'5 2.5
2017-Mar-11 03:33N 01°22' E 103°33'0 0.0
2017-Mar-11 02:33N 01°22' E 103°33'0 0.0
2017-Mar-11 01:33N 01°22' E 103°33'0 0.0
2017-Mar-11 00:33N 01°22' E 103°33'0 0.0
2017-Mar-10 23:33N 01°22' E 103°33'0 0.0
2017-Mar-10 22:33N 01°22' E 103°33'0 0.0
2017-Mar-10 21:32N 01°22' E 103°33'0 0.1
2017-Mar-10 20:32N 01°22' E 103°33'0 0.1
2017-Mar-10 19:33N 01°22' E 103°33'0 0.0
2017-Mar-10 18:33N 01°22' E 103°33'0 0.0
2017-Mar-10 17:33N 01°22' E 103°33'0 0.1
2017-Mar-10 16:33N 01°22' E 103°33'0 0.1
2017-Mar-10 15:34N 01°22' E 103°33'0 0.0
2017-Mar-10 14:33N 01°22' E 103°33'0 0.0
2017-Mar-10 13:29N 01°22' E 103°33'1 1.3
2017-Mar-10 12:33N 01°20' E 103°33'9 8.9
2017-Mar-10 11:33N 01°12' E 103°30'1 0.9
2017-Mar-10 10:33N 01°12' E 103°29'6 5.5
2017-Mar-10 09:32N 01°13' E 103°23'5512.7
2017-Mar-10 05:10N 01°42' E 102°36'912.6
2017-Mar-10 04:27N 01°46' E 102°28'1112.6
2017-Mar-10 03:33N 01°51' E 102°18'  

Dump ship's entire track history